createdAt,value
2024-05-09T00:01:27.746Z,13.52
2024-05-09T00:04:29.704Z,12.60
2024-05-09T00:07:31.651Z,13.20
2024-05-09T00:10:37.357Z,13.95
2024-05-09T00:13:40.834Z,13.65
2024-05-09T00:16:42.882Z,13.90
2024-05-09T00:19:45.682Z,13.73
2024-05-09T00:22:49.289Z,13.27
2024-05-09T00:25:51.429Z,14.32
2024-05-09T00:28:53.417Z,13.57
2024-05-09T00:31:55.393Z,13.98
2024-05-09T00:34:57.594Z,13.70
2024-05-09T00:41:04.846Z,14.48
2024-05-09T00:44:08.346Z,14.20
2024-05-09T00:47:10.726Z,13.32
2024-05-09T00:50:22.662Z,13.55
2024-05-09T00:53:28.494Z,13.32
2024-05-09T00:56:30.520Z,13.83
2024-05-09T00:59:34.468Z,14.82
2024-05-09T01:02:36.760Z,14.85
2024-05-09T01:05:39.767Z,13.75
2024-05-09T01:08:42.244Z,14.57
2024-05-09T01:11:44.515Z,14.82
2024-05-09T01:14:46.585Z,14.27
2024-05-09T01:17:49.050Z,13.65
2024-05-09T01:20:51.295Z,13.77
2024-05-09T01:23:53.269Z,13.98
2024-05-09T01:26:55.270Z,13.98
2024-05-09T01:29:57.175Z,13.75
2024-05-09T01:33:01.722Z,14.32
2024-05-09T01:36:05.516Z,14.52
2024-05-09T01:39:07.974Z,15.43
2024-05-09T01:42:09.900Z,15.17
2024-05-09T01:45:12.698Z,14.57
2024-05-09T01:48:14.892Z,13.43
2024-05-09T01:51:17.028Z,13.80
2024-05-09T01:54:19.178Z,13.60
2024-05-09T01:57:21.130Z,13.52
2024-05-09T02:00:36.410Z,13.50
2024-05-09T02:03:44.845Z,12.77
2024-05-09T02:06:47.045Z,13.48
2024-05-09T02:09:52.866Z,14.77
2024-05-09T02:12:54.772Z,13.07
2024-05-09T02:15:56.810Z,14.00
2024-05-09T02:18:59.473Z,15.07
2024-05-09T02:22:01.461Z,15.43
2024-05-09T02:25:03.414Z,16.10
2024-05-09T02:28:05.677Z,16.52
2024-05-09T02:31:07.855Z,15.13
2024-05-09T02:34:09.758Z,16.35
2024-05-09T02:37:11.662Z,15.95
2024-05-09T02:40:15.170Z,15.80
2024-05-09T02:43:23.489Z,14.38
2024-05-09T02:46:25.550Z,14.63
2024-05-09T02:49:30.675Z,14.85
2024-05-09T02:52:35.316Z,13.95
2024-05-09T02:55:41.432Z,14.57
2024-05-09T02:58:43.423Z,14.60
2024-05-09T03:01:45.841Z,15.75
2024-05-09T03:04:47.835Z,16.83
2024-05-09T03:07:49.790Z,16.38
2024-05-09T03:10:51.736Z,13.48
2024-05-09T03:13:54.463Z,14.48
2024-05-09T03:16:56.549Z,15.63
2024-05-09T03:19:59.162Z,14.85
2024-05-09T03:23:01.394Z,15.23
2024-05-09T03:26:05.846Z,16.30
2024-05-09T03:29:08.009Z,15.60
2024-05-09T03:32:10.444Z,16.35
2024-05-09T03:35:12.710Z,16.77
2024-05-09T03:38:14.894Z,15.93
2024-05-09T03:41:20.176Z,15.02
2024-05-09T03:44:24.589Z,15.02
2024-05-09T03:47:26.707Z,14.70
2024-05-09T03:50:33.930Z,14.00
2024-05-09T03:53:39.266Z,13.95
2024-05-09T03:56:41.406Z,12.88
2024-05-09T03:59:43.501Z,12.80
2024-05-09T04:02:48.274Z,13.68
2024-05-09T04:05:50.253Z,13.93
2024-05-09T04:08:57.799Z,15.40
2024-05-09T04:12:02.291Z,15.63
2024-05-09T04:15:04.504Z,15.30
2024-05-09T04:18:06.628Z,15.80
2024-05-09T04:21:09.098Z,15.93
2024-05-09T04:24:12.336Z,15.27
2024-05-09T04:27:21.543Z,15.75
2024-05-09T04:30:34.283Z,16.08
2024-05-09T04:33:41.069Z,16.95
2024-05-09T04:36:44.521Z,15.20
2024-05-09T04:39:49.019Z,15.68
2024-05-09T04:42:50.981Z,15.35
2024-05-09T04:45:53.616Z,15.80
2024-05-09T04:48:55.767Z,15.80
2024-05-09T04:51:59.390Z,15.27
2024-05-09T04:55:01.491Z,15.02
2024-05-09T04:58:03.676Z,15.77
2024-05-09T05:01:05.591Z,16.00
2024-05-09T05:04:07.653Z,17.98
2024-05-09T05:07:10.280Z,20.48
2024-05-09T05:10:17.890Z,20.67
2024-05-09T05:13:33.438Z,21.95
2024-05-09T05:16:35.341Z,19.77
2024-05-09T05:19:37.367Z,18.95
2024-05-09T05:22:43.152Z,19.85
2024-05-09T05:25:47.982Z,19.13
2024-05-09T05:28:56.143Z,17.90
2024-05-09T05:32:01.418Z,16.92
2024-05-09T05:35:03.575Z,16.15
2024-05-09T05:38:07.510Z,18.63
2024-05-09T05:41:10.304Z,18.23
2024-05-09T05:44:14.318Z,18.20
2024-05-09T05:47:16.407Z,17.20
2024-05-09T05:50:27.304Z,16.58
2024-05-09T05:53:35.000Z,17.42
2024-05-09T05:56:37.008Z,16.80
2024-05-09T05:59:39.318Z,16.65
2024-05-09T06:02:41.788Z,17.27
2024-05-09T06:05:46.902Z,16.43
2024-05-09T06:08:49.356Z,16.58
2024-05-09T06:11:51.378Z,16.83
2024-05-09T06:14:53.665Z,16.35
2024-05-09T06:17:55.645Z,17.27
2024-05-09T06:20:57.650Z,16.95
2024-05-09T06:24:00.356Z,16.67
2024-05-09T06:27:03.811Z,17.67
2024-05-09T06:33:17.245Z,16.17
2024-05-09T06:36:19.435Z,17.63
2024-05-09T06:39:21.381Z,17.85
2024-05-09T06:42:23.304Z,19.55
2024-05-09T06:45:27.691Z,18.58
2024-05-09T06:48:30.133Z,18.60
2024-05-09T06:51:32.321Z,18.10
2024-05-09T06:54:36.628Z,18.70
2024-05-09T06:57:40.636Z,19.55
2024-05-09T07:00:47.191Z,19.30
2024-05-09T07:03:49.273Z,18.67
2024-05-09T07:06:51.334Z,22.52
2024-05-09T07:09:53.208Z,23.73
2024-05-09T07:12:55.084Z,23.80
2024-05-09T07:15:59.196Z,23.80
2024-05-09T07:19:01.462Z,26.45
2024-05-09T07:22:03.628Z,26.35
2024-05-09T07:25:05.730Z,29.23
2024-05-09T07:28:15.856Z,30.10
2024-05-09T07:31:17.920Z,28.23
2024-05-09T07:34:20.033Z,29.25
2024-05-09T07:37:22.392Z,28.27
2024-05-09T07:40:32.748Z,33.63
2024-05-09T07:43:41.039Z,34.63
2024-05-09T07:47:47.955Z,36.70
2024-05-09T07:53:37.212Z,41.83
2024-05-09T07:56:35.267Z,40.97
2024-05-09T07:59:40.320Z,38.83
2024-05-09T08:02:42.617Z,36.42
2024-05-09T08:05:44.656Z,36.95
2024-05-09T08:08:47.642Z,37.25
2024-05-09T08:11:52.797Z,38.67
2024-05-09T08:14:56.386Z,37.88
2024-05-09T08:17:58.450Z,38.05
2024-05-09T08:21:00.538Z,41.10
2024-05-09T08:24:02.868Z,40.95
2024-05-09T08:27:07.788Z,42.88
2024-05-09T08:30:25.284Z,44.75
2024-05-09T08:33:34.906Z,46.60
2024-05-09T08:36:37.229Z,47.97
2024-05-09T08:39:39.340Z,49.72
2024-05-09T08:42:49.456Z,47.47
2024-05-09T08:45:52.233Z,47.53
2024-05-09T08:48:58.444Z,46.55
2024-05-09T08:52:02.665Z,48.50
2024-05-09T08:55:07.989Z,47.50
2024-05-09T08:58:15.398Z,48.80
2024-05-09T09:01:19.112Z,51.30
2024-05-09T09:04:34.557Z,48.72
2024-05-09T09:07:39.966Z,49.15
2024-05-09T09:10:54.252Z,47.55
2024-05-09T09:14:06.797Z,45.90
2024-05-09T09:20:58.876Z,45.90
2024-05-09T09:23:24.240Z,46.58
2024-05-09T09:24:22.298Z,45.70
2024-05-09T09:27:24.435Z,47.30
2024-05-09T09:30:36.966Z,47.13
2024-05-09T09:33:43.923Z,45.05
2024-05-09T09:36:47.420Z,44.60
2024-05-09T09:43:03.996Z,45.05
2024-05-09T09:46:13.621Z,44.45
2024-05-09T09:49:17.113Z,42.95
2024-05-09T09:52:22.642Z,44.28
2024-05-09T09:55:25.023Z,45.30
2024-05-09T09:58:29.137Z,43.23
2024-05-09T10:01:33.777Z,39.33
2024-05-09T10:04:37.056Z,38.78
2024-05-09T10:10:48.161Z,36.55
2024-05-09T10:13:51.990Z,35.42
2024-05-09T10:17:04.627Z,35.28
2024-05-09T10:20:14.783Z,35.33
2024-05-09T10:23:39.032Z,36.55
2024-05-09T10:26:41.291Z,32.45
2024-05-09T10:29:56.800Z,32.03
2024-05-09T10:33:00.910Z,31.02
2024-05-09T10:36:23.019Z,27.33
2024-05-09T10:39:36.426Z,24.30
2024-05-09T10:42:39.796Z,23.75
2024-05-09T10:48:44.404Z,24.30
2024-05-09T10:51:48.190Z,24.10
2024-05-09T10:54:51.877Z,24.02
2024-05-09T10:57:53.939Z,24.02
2024-05-09T11:00:56.126Z,26.02
2024-05-09T11:03:58.618Z,25.73
2024-05-09T11:07:05.546Z,24.13
2024-05-09T11:10:12.351Z,23.60
2024-05-09T11:13:14.690Z,23.65
2024-05-09T11:16:33.064Z,18.30
2024-05-09T11:19:40.101Z,16.60
2024-05-09T11:22:42.152Z,17.23
2024-05-09T11:25:50.580Z,16.27
2024-05-09T11:28:52.610Z,21.08
2024-05-09T11:31:54.549Z,17.75
2024-05-09T11:34:56.582Z,17.35
2024-05-09T11:37:58.464Z,19.63
2024-05-09T11:41:00.425Z,16.33
2024-05-09T11:44:04.754Z,14.52
2024-05-09T11:47:06.775Z,13.68
2024-05-09T11:50:13.002Z,15.80
2024-05-09T11:53:18.037Z,15.85
2024-05-09T11:56:20.107Z,15.30
2024-05-09T11:59:22.007Z,15.77
2024-05-09T12:02:24.114Z,17.40
2024-05-09T12:05:27.077Z,17.98
2024-05-09T12:08:29.271Z,17.40
2024-05-09T12:11:32.423Z,16.13
2024-05-09T12:14:36.002Z,14.32
2024-05-09T12:17:38.268Z,14.60
2024-05-09T12:20:40.460Z,13.80
2024-05-09T12:23:42.425Z,11.73
2024-05-09T12:26:44.351Z,9.85
2024-05-09T12:29:46.743Z,8.88
2024-05-09T12:32:49.727Z,12.65
2024-05-09T12:35:52.055Z,13.38
2024-05-09T12:38:54.038Z,12.23
2024-05-09T12:41:56.227Z,11.25
2024-05-09T12:44:58.061Z,12.80
2024-05-09T12:48:00.040Z,14.77
2024-05-09T12:51:02.001Z,12.07
2024-05-09T13:01:03.974Z,12.82
2024-05-09T13:04:06.164Z,13.43
2024-05-09T13:07:08.488Z,12.15
2024-05-09T13:10:19.695Z,11.60
2024-05-09T13:13:29.162Z,12.25
2024-05-09T13:16:31.319Z,11.77
2024-05-09T13:19:45.708Z,12.77
2024-05-09T13:22:48.639Z,11.23
2024-05-09T13:25:50.708Z,13.10
2024-05-09T13:29:01.452Z,12.05
2024-05-09T13:32:03.517Z,12.32
2024-05-09T13:35:05.922Z,11.30
2024-05-09T13:38:07.840Z,11.18
2024-05-09T13:44:34.637Z,10.30
2024-05-09T13:47:42.648Z,10.43
2024-05-09T13:50:44.729Z,9.88
2024-05-09T13:53:46.674Z,10.15
2024-05-09T13:56:52.535Z,9.70
2024-05-09T13:59:57.544Z,9.93
2024-05-09T14:03:02.776Z,9.85
2024-05-09T14:06:05.051Z,10.55
2024-05-09T14:09:09.826Z,9.88
2024-05-09T14:12:23.092Z,9.95
2024-05-09T14:15:40.997Z,8.80
2024-05-09T14:18:42.938Z,9.48
2024-05-09T14:21:44.863Z,10.48
2024-05-09T14:24:47.019Z,9.70
2024-05-09T14:27:49.280Z,10.65
2024-05-09T14:31:06.012Z,12.18
2024-05-09T14:34:11.080Z,11.85
2024-05-09T14:37:13.640Z,11.73
2024-05-09T14:40:30.494Z,11.60
2024-05-09T14:43:40.063Z,10.88
2024-05-09T14:50:08.994Z,10.00
2024-05-09T14:53:13.887Z,10.25
2024-05-09T14:56:28.449Z,11.07
2024-05-09T14:59:45.751Z,9.57
2024-05-09T15:02:48.089Z,8.85
2024-05-09T15:05:52.692Z,9.70
2024-05-09T15:08:56.903Z,9.13
2024-05-09T15:11:58.855Z,9.13
2024-05-09T15:15:00.937Z,9.60
2024-05-09T15:18:05.163Z,9.40
2024-05-09T15:21:07.649Z,9.23
2024-05-09T15:24:27.310Z,8.80
2024-05-09T15:27:29.403Z,9.90
2024-05-09T15:30:33.573Z,10.55
2024-05-09T15:33:37.029Z,10.95
2024-05-09T15:36:41.799Z,10.15
2024-05-09T15:43:04.201Z,8.50
2024-05-09T15:46:15.482Z,8.30
2024-05-09T15:49:17.962Z,7.80
2024-05-09T15:52:20.150Z,9.50
2024-05-09T15:55:22.134Z,9.48
2024-05-09T16:01:35.432Z,9.13
2024-05-09T16:04:40.565Z,10.23
2024-05-09T16:07:42.752Z,11.52
2024-05-09T16:11:02.322Z,10.60
2024-05-09T16:14:04.472Z,12.23
2024-05-09T16:17:06.710Z,11.90
2024-05-09T16:20:29.402Z,9.30
2024-05-09T16:23:40.540Z,8.98
2024-05-09T16:26:42.994Z,9.68
2024-05-09T16:29:48.224Z,13.97
2024-05-09T16:32:50.326Z,40.85
2024-05-09T16:35:55.107Z,15.85
2024-05-09T16:39:20.326Z,9.55
2024-05-09T16:42:26.624Z,7.60
2024-05-09T16:48:57.683Z,7.70
2024-05-09T16:51:59.722Z,8.20
2024-05-09T16:55:18.537Z,8.05
2024-05-09T16:58:20.936Z,8.10
2024-05-09T17:01:32.054Z,7.75
2024-05-09T17:07:51.013Z,10.45
2024-05-09T17:10:53.328Z,18.48
2024-05-09T17:14:04.335Z,47.28
2024-05-09T17:17:08.181Z,22.65
2024-05-09T17:20:28.856Z,10.30
2024-05-09T17:23:35.626Z,8.35
2024-05-09T17:26:40.381Z,9.07
2024-05-09T17:29:42.422Z,140.63
2024-05-09T17:32:44.425Z,54.00
2024-05-09T17:35:50.394Z,17.15
2024-05-09T17:38:58.646Z,10.35
2024-05-09T17:42:06.473Z,9.40
2024-05-09T17:45:11.385Z,10.38
2024-05-09T17:48:13.816Z,10.63
2024-05-09T17:51:15.984Z,9.57
2024-05-09T17:54:18.060Z,8.45
2024-05-09T18:00:51.087Z,9.13
2024-05-09T18:07:48.661Z,9.23
2024-05-09T18:11:08.391Z,9.23
2024-05-09T18:14:10.643Z,9.57
2024-05-09T18:17:13.489Z,9.85
2024-05-09T18:20:24.121Z,10.27
2024-05-09T18:23:35.382Z,10.25
2024-05-09T18:26:40.756Z,10.43
2024-05-09T18:29:42.820Z,10.85
2024-05-09T18:32:45.059Z,11.13
2024-05-09T18:35:47.028Z,13.13
2024-05-09T18:38:51.634Z,11.68
2024-05-09T18:41:53.692Z,12.00
2024-05-09T18:44:55.602Z,11.82
2024-05-09T18:47:57.967Z,11.93
2024-05-09T18:51:00.299Z,13.23
2024-05-09T18:54:02.239Z,12.52
2024-05-09T18:57:04.355Z,13.05
2024-05-09T19:00:08.770Z,12.48
2024-05-09T19:03:15.492Z,12.63
2024-05-09T19:06:21.041Z,12.45
2024-05-09T19:09:29.720Z,12.65
2024-05-09T19:12:37.777Z,13.05
2024-05-09T19:15:45.289Z,13.35
2024-05-09T19:18:57.140Z,13.00
2024-05-09T19:22:34.661Z,13.68
2024-05-09T19:25:47.156Z,13.40
2024-05-09T19:29:03.201Z,14.27
2024-05-09T19:32:05.391Z,13.77
2024-05-09T19:35:07.734Z,15.25
2024-05-09T19:38:09.812Z,17.85
2024-05-09T19:41:11.897Z,18.00
2024-05-09T19:48:03.655Z,18.25
2024-05-09T19:51:06.110Z,18.45
2024-05-09T19:54:13.936Z,18.35
2024-05-09T19:57:19.436Z,17.98
2024-05-09T20:00:29.212Z,19.83
2024-05-09T20:07:27.120Z,20.50
2024-05-09T20:10:32.717Z,21.17
2024-05-09T20:13:37.008Z,21.60
2024-05-09T20:16:38.895Z,21.85
2024-05-09T20:19:43.939Z,21.83
2024-05-09T20:22:46.130Z,22.88
2024-05-09T20:25:48.145Z,23.02
2024-05-09T20:28:50.028Z,22.17
2024-05-09T20:31:51.992Z,22.85
2024-05-09T20:34:56.220Z,22.88
2024-05-09T20:37:59.656Z,23.15
2024-05-09T20:41:02.284Z,22.83
2024-05-09T20:44:04.918Z,23.15
2024-05-09T20:47:06.787Z,22.83
2024-05-09T20:50:20.203Z,23.30
2024-05-09T20:53:30.130Z,23.00
2024-05-09T20:56:34.851Z,22.60
2024-05-09T20:59:39.182Z,21.80
2024-05-09T21:02:42.887Z,22.52
2024-05-09T21:05:45.271Z,22.05
2024-05-09T21:08:47.543Z,23.57
2024-05-09T21:11:49.478Z,21.80
2024-05-09T21:14:51.615Z,21.55
2024-05-09T21:17:55.460Z,21.90
2024-05-09T21:20:57.698Z,22.42
2024-05-09T21:23:59.566Z,22.75
2024-05-09T21:27:05.748Z,21.65
2024-05-09T21:30:18.611Z,21.30
2024-05-09T21:33:29.437Z,21.25
2024-05-09T21:36:31.776Z,22.25
2024-05-09T21:43:04.590Z,22.80
2024-05-09T21:46:16.308Z,22.13
2024-05-09T21:49:18.750Z,22.10
2024-05-09T21:52:20.755Z,22.88
2024-05-09T21:55:43.532Z,23.00
2024-05-09T21:59:07.306Z,22.58
2024-05-09T22:06:03.218Z,22.90
2024-05-09T22:09:05.742Z,23.95
2024-05-09T22:12:26.563Z,22.27
2024-05-09T22:15:28.584Z,22.33
2024-05-09T22:21:46.157Z,22.70
2024-05-09T22:24:48.535Z,23.70
2024-05-09T22:27:57.131Z,23.77
2024-05-09T22:31:14.537Z,24.00
2024-05-09T22:34:22.243Z,24.40
2024-05-09T22:37:42.421Z,24.05
2024-05-09T22:40:52.299Z,23.35
2024-05-09T22:43:57.512Z,23.60
2024-05-09T22:47:35.621Z,23.67
2024-05-09T22:50:48.228Z,24.83
2024-05-09T22:53:50.261Z,26.92
2024-05-09T22:56:52.395Z,28.33
2024-05-09T23:00:00.593Z,25.33
2024-05-09T23:03:02.839Z,26.75
2024-05-09T23:09:47.643Z,25.30
2024-05-09T23:13:21.390Z,26.10
2024-05-09T23:16:39.751Z,25.50
2024-05-09T23:19:41.678Z,27.45
2024-05-09T23:22:46.345Z,26.50
2024-05-09T23:25:50.002Z,26.73
2024-05-09T23:28:52.115Z,27.73
2024-05-09T23:31:58.025Z,27.52
2024-05-09T23:38:24.851Z,26.55
2024-05-09T23:41:36.398Z,25.60
2024-05-09T23:48:10.863Z,25.00
2024-05-09T23:52:00.664Z,25.42
2024-05-09T23:55:02.738Z,26.33
2024-05-09T23:58:05.681Z,24.65
